sensor_id;sensor_type;location;lat;lon;timestamp;pressure;altitude;pressure_sealevel;temperature
19666;BMP180;9980;51.020;7.772;2022-08-01T00:00:47;97600.00;;;24.10
19666;BMP180;9980;51.020;7.772;2022-08-01T00:03:14;97597.00;;;24.10
19666;BMP180;9980;51.020;7.772;2022-08-01T00:05:41;97592.00;;;24.10
19666;BMP180;9980;51.020;7.772;2022-08-01T00:08:10;97587.00;;;24.10
19666;BMP180;9980;51.020;7.772;2022-08-01T00:10:37;97592.00;;;24.10
19666;BMP180;9980;51.020;7.772;2022-08-01T00:13:03;97591.00;;;24.00
19666;BMP180;9980;51.020;7.772;2022-08-01T00:15:30;97589.00;;;24.00
19666;BMP180;9980;51.020;7.772;2022-08-01T00:17:59;97596.00;;;24.00
19666;BMP180;9980;51.020;7.772;2022-08-01T00:20:26;97589.00;;;24.00
19666;BMP180;9980;51.020;7.772;2022-08-01T00:22:53;97594.00;;;24.00
19666;BMP180;9980;51.020;7.772;2022-08-01T00:25:20;97581.00;;;24.00
19666;BMP180;9980;51.020;7.772;2022-08-01T00:28:00;97575.00;;;24.00
19666;BMP180;9980;51.020;7.772;2022-08-01T00:30:27;97579.00;;;24.00
19666;BMP180;9980;51.020;7.772;2022-08-01T00:32:54;97576.00;;;23.90
19666;BMP180;9980;51.020;7.772;2022-08-01T00:35:22;97583.00;;;23.90
19666;BMP180;9980;51.020;7.772;2022-08-01T00:37:49;97591.00;;;23.90
19666;BMP180;9980;51.020;7.772;2022-08-01T00:40:16;97590.00;;;23.90
19666;BMP180;9980;51.020;7.772;2022-08-01T00:42:43;97570.00;;;23.80
19666;BMP180;9980;51.020;7.772;2022-08-01T00:45:11;97588.00;;;23.80
19666;BMP180;9980;51.020;7.772;2022-08-01T00:47:39;97582.00;;;23.80
19666;BMP180;9980;51.020;7.772;2022-08-01T00:50:07;97589.00;;;23.80
19666;BMP180;9980;51.020;7.772;2022-08-01T00:52:38;97585.00;;;23.80
19666;BMP180;9980;51.020;7.772;2022-08-01T00:55:06;97567.00;;;23.70
19666;BMP180;9980;51.020;7.772;2022-08-01T00:57:33;97562.00;;;23.70
19666;BMP180;9980;51.020;7.772;2022-08-01T01:00:21;97568.00;;;23.70
19666;BMP180;9980;51.020;7.772;2022-08-01T01:02:53;97571.00;;;23.70
19666;BMP180;9980;51.020;7.772;2022-08-01T01:05:21;97586.00;;;23.70
19666;BMP180;9980;51.020;7.772;2022-08-01T01:08:04;97574.00;;;23.60
19666;BMP180;9980;51.020;7.772;2022-08-01T01:10:54;97576.00;;;23.60
19666;BMP180;9980;51.020;7.772;2022-08-01T01:13:43;97575.00;;;23.60
19666;BMP180;9980;51.020;7.772;2022-08-01T01:16:19;97587.00;;;23.60
19666;BMP180;9980;51.020;7.772;2022-08-01T01:18:53;97569.00;;;23.60
19666;BMP180;9980;51.020;7.772;2022-08-01T01:24:03;97573.00;;;23.50
19666;BMP180;9980;51.020;7.772;2022-08-01T01:26:56;97583.00;;;23.50
19666;BMP180;9980;51.020;7.772;2022-08-01T01:29:31;97587.00;;;23.50
19666;BMP180;9980;51.020;7.772;2022-08-01T01:32:44;97575.00;;;23.40
19666;BMP180;9980;51.020;7.772;2022-08-01T01:35:24;97587.00;;;23.40
19666;BMP180;9980;51.020;7.772;2022-08-01T01:38:10;97580.00;;;23.40
19666;BMP180;9980;51.020;7.772;2022-08-01T01:40:41;97586.00;;;23.40
19666;BMP180;9980;51.020;7.772;2022-08-01T01:43:12;97585.00;;;23.40
19666;BMP180;9980;51.020;7.772;2022-08-01T01:45:45;97589.00;;;23.40
19666;BMP180;9980;51.020;7.772;2022-08-01T01:48:17;97584.00;;;23.40
19666;BMP180;9980;51.020;7.772;2022-08-01T01:50:49;97588.00;;;23.40
19666;BMP180;9980;51.020;7.772;2022-08-01T01:53:21;97591.00;;;23.40
19666;BMP180;9980;51.020;7.772;2022-08-01T01:55:53;97580.00;;;23.40
19666;BMP180;9980;51.020;7.772;2022-08-01T01:58:22;97588.00;;;23.40
19666;BMP180;9980;51.020;7.772;2022-08-01T02:00:52;97594.00;;;23.40
19666;BMP180;9980;51.020;7.772;2022-08-01T02:03:21;97588.00;;;23.40
19666;BMP180;9980;51.020;7.772;2022-08-01T02:05:52;97585.00;;;23.40
19666;BMP180;9980;51.020;7.772;2022-08-01T02:08:21;97579.00;;;23.40
19666;BMP180;9980;51.020;7.772;2022-08-01T02:10:53;97587.00;;;23.30
19666;BMP180;9980;51.020;7.772;2022-08-01T02:13:41;97576.00;;;23.30
19666;BMP180;9980;51.020;7.772;2022-08-01T02:16:09;97580.00;;;23.30
19666;BMP180;9980;51.020;7.772;2022-08-01T02:18:40;97580.00;;;23.30
19666;BMP180;9980;51.020;7.772;2022-08-01T02:21:12;97581.00;;;23.20
19666;BMP180;9980;51.020;7.772;2022-08-01T02:23:42;97568.00;;;23.20
19666;BMP180;9980;51.020;7.772;2022-08-01T02:26:14;97580.00;;;23.20
19666;BMP180;9980;51.020;7.772;2022-08-01T02:28:59;97580.00;;;23.20
19666;BMP180;9980;51.020;7.772;2022-08-01T02:31:32;97579.00;;;23.20
19666;BMP180;9980;51.020;7.772;2022-08-01T02:34:09;97569.00;;;23.20
19666;BMP180;9980;51.020;7.772;2022-08-01T02:36:38;97589.00;;;23.20
19666;BMP180;9980;51.020;7.772;2022-08-01T02:39:12;97580.00;;;23.20
19666;BMP180;9980;51.020;7.772;2022-08-01T02:41:48;97582.00;;;23.20
19666;BMP180;9980;51.020;7.772;2022-08-01T02:44:28;97581.00;;;23.20
19666;BMP180;9980;51.020;7.772;2022-08-01T02:47:00;97583.00;;;23.20
19666;BMP180;9980;51.020;7.772;2022-08-01T02:49:39;97580.00;;;23.20
19666;BMP180;9980;51.020;7.772;2022-08-01T02:52:12;97586.00;;;23.20
19666;BMP180;9980;51.020;7.772;2022-08-01T02:54:44;97589.00;;;23.20
19666;BMP180;9980;51.020;7.772;2022-08-01T02:57:13;97581.00;;;23.20
19666;BMP180;9980;51.020;7.772;2022-08-01T02:59:45;97578.00;;;23.20
19666;BMP180;9980;51.020;7.772;2022-08-01T03:02:14;97572.00;;;23.20
19666;BMP180;9980;51.020;7.772;2022-08-01T03:04:42;97588.00;;;23.20
19666;BMP180;9980;51.020;7.772;2022-08-01T03:07:12;97584.00;;;23.20
19666;BMP180;9980;51.020;7.772;2022-08-01T03:09:43;97586.00;;;23.20
19666;BMP180;9980;51.020;7.772;2022-08-01T03:12:26;97587.00;;;23.20
19666;BMP180;9980;51.020;7.772;2022-08-01T03:14:57;97596.00;;;23.20
19666;BMP180;9980;51.020;7.772;2022-08-01T03:17:28;97589.00;;;23.20
19666;BMP180;9980;51.020;7.772;2022-08-01T03:19:58;97585.00;;;23.20
19666;BMP180;9980;51.020;7.772;2022-08-01T03:22:29;97568.00;;;23.20
19666;BMP180;9980;51.020;7.772;2022-08-01T03:24:59;97587.00;;;23.30
19666;BMP180;9980;51.020;7.772;2022-08-01T03:27:29;97579.00;;;23.30
19666;BMP180;9980;51.020;7.772;2022-08-01T03:29:57;97572.00;;;23.30
19666;BMP180;9980;51.020;7.772;2022-08-01T03:32:26;97567.00;;;23.30
19666;BMP180;9980;51.020;7.772;2022-08-01T03:34:54;97581.00;;;23.30
19666;BMP180;9980;51.020;7.772;2022-08-01T03:40:04;97577.00;;;23.30
19666;BMP180;9980;51.020;7.772;2022-08-01T03:42:37;97575.00;;;23.30
19666;BMP180;9980;51.020;7.772;2022-08-01T03:45:09;97589.00;;;23.30
19666;BMP180;9980;51.020;7.772;2022-08-01T03:47:43;97589.00;;;23.30
19666;BMP180;9980;51.020;7.772;2022-08-01T03:50:13;97579.00;;;23.30
19666;BMP180;9980;51.020;7.772;2022-08-01T03:52:43;97581.00;;;23.20
19666;BMP180;9980;51.020;7.772;2022-08-01T03:55:12;97592.00;;;23.30
19666;BMP180;9980;51.020;7.772;2022-08-01T03:57:40;97586.00;;;23.20
19666;BMP180;9980;51.020;7.772;2022-08-01T04:00:08;97604.00;;;23.20
19666;BMP180;9980;51.020;7.772;2022-08-01T04:02:39;97599.00;;;23.20
19666;BMP180;9980;51.020;7.772;2022-08-01T04:05:07;97594.00;;;23.20
19666;BMP180;9980;51.020;7.772;2022-08-01T04:07:34;97588.00;;;23.20
19666;BMP180;9980;51.020;7.772;2022-08-01T04:10:07;97597.00;;;23.20
19666;BMP180;9980;51.020;7.772;2022-08-01T04:12:34;97588.00;;;23.20
19666;BMP180;9980;51.020;7.772;2022-08-01T04:15:03;97599.00;;;23.20
19666;BMP180;9980;51.020;7.772;2022-08-01T04:17:30;97584.00;;;23.20
19666;BMP180;9980;51.020;7.772;2022-08-01T04:19:57;97587.00;;;23.20
19666;BMP180;9980;51.020;7.772;2022-08-01T04:22:24;97591.00;;;23.20
19666;BMP180;9980;51.020;7.772;2022-08-01T04:24:55;97590.00;;;23.10
19666;BMP180;9980;51.020;7.772;2022-08-01T04:27:31;97600.00;;;23.10
19666;BMP180;9980;51.020;7.772;2022-08-01T04:30:26;97607.00;;;23.10
19666;BMP180;9980;51.020;7.772;2022-08-01T04:32:57;97608.00;;;23.10
19666;BMP180;9980;51.020;7.772;2022-08-01T04:35:27;97602.00;;;23.10
19666;BMP180;9980;51.020;7.772;2022-08-01T04:38:21;97613.00;;;23.10
19666;BMP180;9980;51.020;7.772;2022-08-01T04:40:51;97617.00;;;23.10
19666;BMP180;9980;51.020;7.772;2022-08-01T04:43:19;97624.00;;;23.10
19666;BMP180;9980;51.020;7.772;2022-08-01T04:45:47;97620.00;;;23.10
19666;BMP180;9980;51.020;7.772;2022-08-01T04:48:17;97619.00;;;23.10
19666;BMP180;9980;51.020;7.772;2022-08-01T04:50:48;97628.00;;;23.10
19666;BMP180;9980;51.020;7.772;2022-08-01T04:53:17;97624.00;;;23.10
19666;BMP180;9980;51.020;7.772;2022-08-01T04:55:46;97635.00;;;23.10
19666;BMP180;9980;51.020;7.772;2022-08-01T04:58:14;97616.00;;;23.10
19666;BMP180;9980;51.020;7.772;2022-08-01T05:00:45;97628.00;;;23.10
19666;BMP180;9980;51.020;7.772;2022-08-01T05:03:13;97612.00;;;23.10
19666;BMP180;9980;51.020;7.772;2022-08-01T05:05:43;97606.00;;;23.10
19666;BMP180;9980;51.020;7.772;2022-08-01T05:08:10;97597.00;;;23.10
19666;BMP180;9980;51.020;7.772;2022-08-01T05:10:37;97603.00;;;23.20
19666;BMP180;9980;51.020;7.772;2022-08-01T05:13:04;97620.00;;;23.20
19666;BMP180;9980;51.020;7.772;2022-08-01T05:15:34;97616.00;;;23.20
19666;BMP180;9980;51.020;7.772;2022-08-01T05:18:04;97608.00;;;23.20
19666;BMP180;9980;51.020;7.772;2022-08-01T05:20:33;97630.00;;;23.20
19666;BMP180;9980;51.020;7.772;2022-08-01T05:23:00;97632.00;;;23.20
19666;BMP180;9980;51.020;7.772;2022-08-01T05:25:27;97627.00;;;23.20
19666;BMP180;9980;51.020;7.772;2022-08-01T05:28:14;97633.00;;;23.20
19666;BMP180;9980;51.020;7.772;2022-08-01T05:30:45;97621.00;;;23.20
19666;BMP180;9980;51.020;7.772;2022-08-01T05:33:12;97621.00;;;23.30
19666;BMP180;9980;51.020;7.772;2022-08-01T05:35:39;97620.00;;;23.30
19666;BMP180;9980;51.020;7.772;2022-08-01T05:38:14;97626.00;;;23.30
19666;BMP180;9980;51.020;7.772;2022-08-01T05:40:41;97620.00;;;23.30
19666;BMP180;9980;51.020;7.772;2022-08-01T05:43:07;97622.00;;;23.30
19666;BMP180;9980;51.020;7.772;2022-08-01T05:45:34;97625.00;;;23.30
19666;BMP180;9980;51.020;7.772;2022-08-01T05:48:04;97629.00;;;23.30
19666;BMP180;9980;51.020;7.772;2022-08-01T05:50:33;97631.00;;;23.30
19666;BMP180;9980;51.020;7.772;2022-08-01T05:53:00;97639.00;;;23.40
19666;BMP180;9980;51.020;7.772;2022-08-01T05:55:27;97644.00;;;23.40
19666;BMP180;9980;51.020;7.772;2022-08-01T05:57:54;97648.00;;;23.40
19666;BMP180;9980;51.020;7.772;2022-08-01T06:00:21;97643.00;;;23.40
19666;BMP180;9980;51.020;7.772;2022-08-01T06:02:48;97649.00;;;23.40
19666;BMP180;9980;51.020;7.772;2022-08-01T06:05:15;97651.00;;;23.40
19666;BMP180;9980;51.020;7.772;2022-08-01T06:07:42;97650.00;;;23.40
19666;BMP180;9980;51.020;7.772;2022-08-01T06:10:09;97650.00;;;23.40
19666;BMP180;9980;51.020;7.772;2022-08-01T06:12:37;97638.00;;;23.40
19666;BMP180;9980;51.020;7.772;2022-08-01T06:15:08;97650.00;;;23.40
19666;BMP180;9980;51.020;7.772;2022-08-01T06:17:35;97652.00;;;23.50
19666;BMP180;9980;51.020;7.772;2022-08-01T06:20:03;97652.00;;;23.50
19666;BMP180;9980;51.020;7.772;2022-08-01T06:22:30;97658.00;;;23.50
19666;BMP180;9980;51.020;7.772;2022-08-01T06:24:58;97650.00;;;23.60
19666;BMP180;9980;51.020;7.772;2022-08-01T06:27:25;97648.00;;;23.60
19666;BMP180;9980;51.020;7.772;2022-08-01T06:29:52;97660.00;;;23.60
19666;BMP180;9980;51.020;7.772;2022-08-01T06:32:23;97661.00;;;23.60
19666;BMP180;9980;51.020;7.772;2022-08-01T06:34:54;97659.00;;;23.70
19666;BMP180;9980;51.020;7.772;2022-08-01T06:37:22;97663.00;;;23.70
19666;BMP180;9980;51.020;7.772;2022-08-01T06:39:50;97665.00;;;23.70
19666;BMP180;9980;51.020;7.772;2022-08-01T06:42:17;97662.00;;;23.70
19666;BMP180;9980;51.020;7.772;2022-08-01T06:44:44;97674.00;;;23.60
19666;BMP180;9980;51.020;7.772;2022-08-01T06:47:12;97667.00;;;23.60
19666;BMP180;9980;51.020;7.772;2022-08-01T06:49:39;97674.00;;;23.60
19666;BMP180;9980;51.020;7.772;2022-08-01T06:52:06;97675.00;;;23.60
19666;BMP180;9980;51.020;7.772;2022-08-01T06:54:34;97659.00;;;23.60
19666;BMP180;9980;51.020;7.772;2022-08-01T06:57:05;97662.00;;;23.60
19666;BMP180;9980;51.020;7.772;2022-08-01T06:59:33;97671.00;;;23.70
19666;BMP180;9980;51.020;7.772;2022-08-01T07:02:00;97674.00;;;23.70
19666;BMP180;9980;51.020;7.772;2022-08-01T07:04:28;97638.00;;;23.80
19666;BMP180;9980;51.020;7.772;2022-08-01T07:06:55;97659.00;;;23.80
19666;BMP180;9980;51.020;7.772;2022-08-01T07:09:23;97657.00;;;23.90
19666;BMP180;9980;51.020;7.772;2022-08-01T07:11:50;97651.00;;;23.90
19666;BMP180;9980;51.020;7.772;2022-08-01T07:14:20;97653.00;;;24.00
19666;BMP180;9980;51.020;7.772;2022-08-01T07:16:47;97669.00;;;24.10
19666;BMP180;9980;51.020;7.772;2022-08-01T07:19:15;97658.00;;;24.10
19666;BMP180;9980;51.020;7.772;2022-08-01T07:21:43;97660.00;;;24.20
19666;BMP180;9980;51.020;7.772;2022-08-01T07:24:14;97667.00;;;24.30
19666;BMP180;9980;51.020;7.772;2022-08-01T07:26:45;97668.00;;;24.30
19666;BMP180;9980;51.020;7.772;2022-08-01T07:29:22;97662.00;;;24.40
19666;BMP180;9980;51.020;7.772;2022-08-01T07:31:51;97672.00;;;24.50
19666;BMP180;9980;51.020;7.772;2022-08-01T07:34:21;97673.00;;;24.60
19666;BMP180;9980;51.020;7.772;2022-08-01T07:36:48;97677.00;;;24.70
19666;BMP180;9980;51.020;7.772;2022-08-01T07:39:15;97676.00;;;24.80
19666;BMP180;9980;51.020;7.772;2022-08-01T07:41:41;97673.00;;;24.80
19666;BMP180;9980;51.020;7.772;2022-08-01T07:44:19;97679.00;;;24.90
19666;BMP180;9980;51.020;7.772;2022-08-01T07:46:46;97686.00;;;25.00
19666;BMP180;9980;51.020;7.772;2022-08-01T07:49:13;97685.00;;;25.00
19666;BMP180;9980;51.020;7.772;2022-08-01T07:51:40;97674.00;;;25.10
19666;BMP180;9980;51.020;7.772;2022-08-01T07:54:07;97686.00;;;25.10
19666;BMP180;9980;51.020;7.772;2022-08-01T07:56:34;97676.00;;;25.20
19666;BMP180;9980;51.020;7.772;2022-08-01T07:59:03;97684.00;;;25.20
19666;BMP180;9980;51.020;7.772;2022-08-01T08:01:29;97674.00;;;25.30
19666;BMP180;9980;51.020;7.772;2022-08-01T08:03:57;97687.00;;;25.40
19666;BMP180;9980;51.020;7.772;2022-08-01T08:06:24;97685.00;;;25.50
19666;BMP180;9980;51.020;7.772;2022-08-01T08:08:51;97693.00;;;25.60
19666;BMP180;9980;51.020;7.772;2022-08-01T08:11:20;97689.00;;;25.60
19666;BMP180;9980;51.020;7.772;2022-08-01T08:13:47;97694.00;;;25.70
19666;BMP180;9980;51.020;7.772;2022-08-01T08:16:14;97701.00;;;25.70
19666;BMP180;9980;51.020;7.772;2022-08-01T08:18:41;97695.00;;;25.80
19666;BMP180;9980;51.020;7.772;2022-08-01T08:21:08;97697.00;;;25.80
19666;BMP180;9980;51.020;7.772;2022-08-01T08:23:35;97689.00;;;25.80
19666;BMP180;9980;51.020;7.772;2022-08-01T08:26:21;97703.00;;;25.90
19666;BMP180;9980;51.020;7.772;2022-08-01T08:28:50;97700.00;;;25.90
19666;BMP180;9980;51.020;7.772;2022-08-01T08:31:17;97695.00;;;26.00
19666;BMP180;9980;51.020;7.772;2022-08-01T08:34:04;97694.00;;;26.00
19666;BMP180;9980;51.020;7.772;2022-08-01T08:36:31;97690.00;;;26.00
19666;BMP180;9980;51.020;7.772;2022-08-01T08:39:00;97711.00;;;26.10
19666;BMP180;9980;51.020;7.772;2022-08-01T08:41:33;97695.00;;;26.10
19666;BMP180;9980;51.020;7.772;2022-08-01T08:44:07;97703.00;;;26.20
19666;BMP180;9980;51.020;7.772;2022-08-01T08:46:48;97698.00;;;26.30
19666;BMP180;9980;51.020;7.772;2022-08-01T08:49:25;97702.00;;;26.30
19666;BMP180;9980;51.020;7.772;2022-08-01T08:52:00;97693.00;;;26.40
19666;BMP180;9980;51.020;7.772;2022-08-01T08:54:30;97703.00;;;26.60
19666;BMP180;9980;51.020;7.772;2022-08-01T08:56:59;97712.00;;;26.60
19666;BMP180;9980;51.020;7.772;2022-08-01T08:59:27;97702.00;;;26.70
19666;BMP180;9980;51.020;7.772;2022-08-01T09:01:56;97698.00;;;26.80
19666;BMP180;9980;51.020;7.772;2022-08-01T09:04:25;97690.00;;;26.90
19666;BMP180;9980;51.020;7.772;2022-08-01T09:06:54;97703.00;;;27.00
19666;BMP180;9980;51.020;7.772;2022-08-01T09:09:22;97697.00;;;27.10
19666;BMP180;9980;51.020;7.772;2022-08-01T09:11:49;97697.00;;;27.20
19666;BMP180;9980;51.020;7.772;2022-08-01T09:14:25;97710.00;;;27.30
19666;BMP180;9980;51.020;7.772;2022-08-01T09:17:09;97699.00;;;27.40
19666;BMP180;9980;51.020;7.772;2022-08-01T09:19:41;97709.00;;;27.50
19666;BMP180;9980;51.020;7.772;2022-08-01T09:22:16;97699.00;;;27.60
19666;BMP180;9980;51.020;7.772;2022-08-01T09:25:17;97713.00;;;27.70
19666;BMP180;9980;51.020;7.772;2022-08-01T09:27:44;97697.00;;;27.90
19666;BMP180;9980;51.020;7.772;2022-08-01T09:30:18;97704.00;;;27.90
19666;BMP180;9980;51.020;7.772;2022-08-01T09:33:03;97713.00;;;28.00
19666;BMP180;9980;51.020;7.772;2022-08-01T09:35:44;97710.00;;;28.10
19666;BMP180;9980;51.020;7.772;2022-08-01T09:38:24;97731.00;;;28.20
19666;BMP180;9980;51.020;7.772;2022-08-01T09:40:59;97725.00;;;28.20
19666;BMP180;9980;51.020;7.772;2022-08-01T09:43:29;97728.00;;;28.30
19666;BMP180;9980;51.020;7.772;2022-08-01T09:45:59;97725.00;;;28.30
19666;BMP180;9980;51.020;7.772;2022-08-01T09:48:26;97722.00;;;28.30
19666;BMP180;9980;51.020;7.772;2022-08-01T09:50:58;97733.00;;;28.40
19666;BMP180;9980;51.020;7.772;2022-08-01T09:53:47;97742.00;;;28.40
19666;BMP180;9980;51.020;7.772;2022-08-01T09:56:21;97740.00;;;28.50
19666;BMP180;9980;51.020;7.772;2022-08-01T09:58:59;97736.00;;;28.60
19666;BMP180;9980;51.020;7.772;2022-08-01T10:01:43;97728.00;;;28.60
19666;BMP180;9980;51.020;7.772;2022-08-01T10:04:20;97731.00;;;28.70
19666;BMP180;9980;51.020;7.772;2022-08-01T10:06:50;97727.00;;;28.70
19666;BMP180;9980;51.020;7.772;2022-08-01T10:09:32;97736.00;;;28.70
19666;BMP180;9980;51.020;7.772;2022-08-01T10:12:07;97745.00;;;28.70
19666;BMP180;9980;51.020;7.772;2022-08-01T10:14:47;97723.00;;;28.70
19666;BMP180;9980;51.020;7.772;2022-08-01T10:17:19;97722.00;;;28.70
19666;BMP180;9980;51.020;7.772;2022-08-01T10:19:49;97728.00;;;28.80
19666;BMP180;9980;51.020;7.772;2022-08-01T10:22:19;97723.00;;;28.90
19666;BMP180;9980;51.020;7.772;2022-08-01T10:24:47;97722.00;;;28.90
19666;BMP180;9980;51.020;7.772;2022-08-01T10:27:17;97723.00;;;29.00
19666;BMP180;9980;51.020;7.772;2022-08-01T10:30:05;97723.00;;;29.10
19666;BMP180;9980;51.020;7.772;2022-08-01T10:32:48;97724.00;;;29.10
19666;BMP180;9980;51.020;7.772;2022-08-01T10:35:18;97710.00;;;29.10
19666;BMP180;9980;51.020;7.772;2022-08-01T10:38:07;97721.00;;;29.20
19666;BMP180;9980;51.020;7.772;2022-08-01T10:40:41;97694.00;;;29.20
19666;BMP180;9980;51.020;7.772;2022-08-01T10:43:13;97712.00;;;29.20
19666;BMP180;9980;51.020;7.772;2022-08-01T10:45:49;97704.00;;;29.30
19666;BMP180;9980;51.020;7.772;2022-08-01T10:48:35;97692.00;;;29.30
19666;BMP180;9980;51.020;7.772;2022-08-01T10:51:07;97702.00;;;29.40
19666;BMP180;9980;51.020;7.772;2022-08-01T10:53:52;97703.00;;;29.50
19666;BMP180;9980;51.020;7.772;2022-08-01T10:56:22;97702.00;;;29.60
19666;BMP180;9980;51.020;7.772;2022-08-01T10:59:02;97691.00;;;29.60
19666;BMP180;9980;51.020;7.772;2022-08-01T11:01:37;97692.00;;;29.70
19666;BMP180;9980;51.020;7.772;2022-08-01T11:04:14;97691.00;;;29.70
19666;BMP180;9980;51.020;7.772;2022-08-01T11:07:02;97702.00;;;29.80
19666;BMP180;9980;51.020;7.772;2022-08-01T11:09:47;97694.00;;;29.90
19666;BMP180;9980;51.020;7.772;2022-08-01T11:12:18;97691.00;;;30.00
19666;BMP180;9980;51.020;7.772;2022-08-01T11:17:38;97700.00;;;30.10
19666;BMP180;9980;51.020;7.772;2022-08-01T11:20:14;97683.00;;;30.20
19666;BMP180;9980;51.020;7.772;2022-08-01T11:28:36;97695.00;;;30.40
19666;BMP180;9980;51.020;7.772;2022-08-01T11:41:41;97692.00;;;30.70
19666;BMP180;9980;51.020;7.772;2022-08-01T11:44:20;97696.00;;;30.70
19666;BMP180;9980;51.020;7.772;2022-08-01T11:47:07;97705.00;;;30.70
19666;BMP180;9980;51.020;7.772;2022-08-01T11:52:31;97692.00;;;30.60
19666;BMP180;9980;51.020;7.772;2022-08-01T11:55:09;97693.00;;;30.60
19666;BMP180;9980;51.020;7.772;2022-08-01T11:57:37;97690.00;;;30.70
19666;BMP180;9980;51.020;7.772;2022-08-01T12:00:16;97695.00;;;30.70
19666;BMP180;9980;51.020;7.772;2022-08-01T12:03:07;97693.00;;;30.70
19666;BMP180;9980;51.020;7.772;2022-08-01T12:05:35;97684.00;;;30.80
19666;BMP180;9980;51.020;7.772;2022-08-01T12:08:09;97694.00;;;30.90
19666;BMP180;9980;51.020;7.772;2022-08-01T12:10:36;97693.00;;;31.00
19666;BMP180;9980;51.020;7.772;2022-08-01T12:13:13;97688.00;;;31.00
19666;BMP180;9980;51.020;7.772;2022-08-01T12:15:40;97673.00;;;31.10
19666;BMP180;9980;51.020;7.772;2022-08-01T12:18:07;97683.00;;;31.20
19666;BMP180;9980;51.020;7.772;2022-08-01T12:20:38;97683.00;;;31.20
19666;BMP180;9980;51.020;7.772;2022-08-01T12:23:22;97680.00;;;31.30
19666;BMP180;9980;51.020;7.772;2022-08-01T12:25:52;97693.00;;;31.40
19666;BMP180;9980;51.020;7.772;2022-08-01T12:28:20;97700.00;;;31.50
19666;BMP180;9980;51.020;7.772;2022-08-01T12:30:49;97692.00;;;31.50
19666;BMP180;9980;51.020;7.772;2022-08-01T12:33:20;97692.00;;;31.40
19666;BMP180;9980;51.020;7.772;2022-08-01T12:35:48;97700.00;;;31.50
19666;BMP180;9980;51.020;7.772;2022-08-01T12:38:19;97706.00;;;31.50
19666;BMP180;9980;51.020;7.772;2022-08-01T12:40:50;97701.00;;;31.50
19666;BMP180;9980;51.020;7.772;2022-08-01T12:43:22;97706.00;;;31.50
19666;BMP180;9980;51.020;7.772;2022-08-01T12:45:58;97697.00;;;31.40
19666;BMP180;9980;51.020;7.772;2022-08-01T12:48:28;97705.00;;;31.40
19666;BMP180;9980;51.020;7.772;2022-08-01T12:50:58;97699.00;;;31.30
19666;BMP180;9980;51.020;7.772;2022-08-01T12:53:27;97696.00;;;31.30
19666;BMP180;9980;51.020;7.772;2022-08-01T12:56:08;97705.00;;;31.30
19666;BMP180;9980;51.020;7.772;2022-08-01T12:58:37;97701.00;;;31.20
19666;BMP180;9980;51.020;7.772;2022-08-01T13:01:11;97693.00;;;31.20
19666;BMP180;9980;51.020;7.772;2022-08-01T13:03:40;97699.00;;;31.20
19666;BMP180;9980;51.020;7.772;2022-08-01T13:06:13;97697.00;;;31.20
19666;BMP180;9980;51.020;7.772;2022-08-01T13:08:43;97690.00;;;31.20
19666;BMP180;9980;51.020;7.772;2022-08-01T13:11:13;97695.00;;;31.20
19666;BMP180;9980;51.020;7.772;2022-08-01T13:13:50;97688.00;;;31.20
19666;BMP180;9980;51.020;7.772;2022-08-01T13:16:21;97693.00;;;31.20
19666;BMP180;9980;51.020;7.772;2022-08-01T13:19:05;97699.00;;;31.20
19666;BMP180;9980;51.020;7.772;2022-08-01T13:21:33;97691.00;;;31.20
19666;BMP180;9980;51.020;7.772;2022-08-01T13:24:28;97705.00;;;31.10
19666;BMP180;9980;51.020;7.772;2022-08-01T13:27:02;97699.00;;;31.10
19666;BMP180;9980;51.020;7.772;2022-08-01T13:29:37;97690.00;;;31.20
19666;BMP180;9980;51.020;7.772;2022-08-01T13:32:22;97698.00;;;31.20
19666;BMP180;9980;51.020;7.772;2022-08-01T13:35:12;97696.00;;;31.30
19666;BMP180;9980;51.020;7.772;2022-08-01T13:37:41;97698.00;;;31.40
19666;BMP180;9980;51.020;7.772;2022-08-01T13:40:10;97696.00;;;31.50
19666;BMP180;9980;51.020;7.772;2022-08-01T13:42:38;97703.00;;;31.60
19666;BMP180;9980;51.020;7.772;2022-08-01T13:45:06;97701.00;;;31.60
19666;BMP180;9980;51.020;7.772;2022-08-01T13:47:42;97699.00;;;31.60
19666;BMP180;9980;51.020;7.772;2022-08-01T13:50:29;97696.00;;;31.60
19666;BMP180;9980;51.020;7.772;2022-08-01T13:52:56;97689.00;;;31.60
19666;BMP180;9980;51.020;7.772;2022-08-01T13:55:23;97702.00;;;31.50
19666;BMP180;9980;51.020;7.772;2022-08-01T13:57:50;97704.00;;;31.50
19666;BMP180;9980;51.020;7.772;2022-08-01T14:00:17;97694.00;;;31.50
19666;BMP180;9980;51.020;7.772;2022-08-01T14:02:44;97693.00;;;31.50
19666;BMP180;9980;51.020;7.772;2022-08-01T14:05:11;97705.00;;;31.40
19666;BMP180;9980;51.020;7.772;2022-08-01T14:07:39;97716.00;;;31.40
19666;BMP180;9980;51.020;7.772;2022-08-01T14:10:07;97715.00;;;31.30
19666;BMP180;9980;51.020;7.772;2022-08-01T14:12:47;97715.00;;;31.20
19666;BMP180;9980;51.020;7.772;2022-08-01T14:15:16;97708.00;;;31.20
19666;BMP180;9980;51.020;7.772;2022-08-01T14:18:04;97711.00;;;31.10
19666;BMP180;9980;51.020;7.772;2022-08-01T14:20:36;97705.00;;;31.10
19666;BMP180;9980;51.020;7.772;2022-08-01T14:23:03;97692.00;;;31.10
19666;BMP180;9980;51.020;7.772;2022-08-01T14:25:40;97700.00;;;31.10
19666;BMP180;9980;51.020;7.772;2022-08-01T14:28:27;97707.00;;;31.20
19666;BMP180;9980;51.020;7.772;2022-08-01T14:30:58;97698.00;;;31.20
19666;BMP180;9980;51.020;7.772;2022-08-01T14:33:25;97691.00;;;31.20
19666;BMP180;9980;51.020;7.772;2022-08-01T14:35:53;97698.00;;;31.20
19666;BMP180;9980;51.020;7.772;2022-08-01T14:38:40;97708.00;;;31.20
19666;BMP180;9980;51.020;7.772;2022-08-01T14:41:07;97703.00;;;31.10
19666;BMP180;9980;51.020;7.772;2022-08-01T14:43:37;97698.00;;;31.10
19666;BMP180;9980;51.020;7.772;2022-08-01T14:46:04;97711.00;;;31.10
19666;BMP180;9980;51.020;7.772;2022-08-01T14:48:31;97699.00;;;31.10
19666;BMP180;9980;51.020;7.772;2022-08-01T14:50:59;97703.00;;;31.10
19666;BMP180;9980;51.020;7.772;2022-08-01T14:53:30;97695.00;;;31.10
19666;BMP180;9980;51.020;7.772;2022-08-01T14:56:03;97698.00;;;31.10
19666;BMP180;9980;51.020;7.772;2022-08-01T14:58:30;97706.00;;;31.10
19666;BMP180;9980;51.020;7.772;2022-08-01T15:00:57;97694.00;;;31.00
19666;BMP180;9980;51.020;7.772;2022-08-01T15:03:26;97716.00;;;31.00
19666;BMP180;9980;51.020;7.772;2022-08-01T15:05:53;97704.00;;;30.90
19666;BMP180;9980;51.020;7.772;2022-08-01T15:08:20;97700.00;;;30.90
19666;BMP180;9980;51.020;7.772;2022-08-01T15:10:48;97695.00;;;30.90
19666;BMP180;9980;51.020;7.772;2022-08-01T15:13:15;97700.00;;;31.00
19666;BMP180;9980;51.020;7.772;2022-08-01T15:15:42;97702.00;;;31.00